Sultan Mahmud Airport Kuala Terengganu MY
ICAO: WMKN
IATA:
Category: Medium
Scheduled Services:

Elevation: 21 ft
TransAlt. 11000 ft.

Airport Communications:
TERENGGANU GND:121.6
TERENGGANU TWR:123.6

WMKN Zoom In..

If you have problems with the map follow the link
https://www.worldairports.se/pages/airport.php?
ICAO=WMKN

Runways:

(A) RW 04 length 11417 ft width 148 ft
ILS 108.10 / hdg 44

(B) RW 22 length 11417 ft width 148 ft
---- / hdg 224

Location; WMKN
Day. 14 / Time. 09.00 Zulu
* QNH: 1008
* Temperature: 28° c. 82.4°f.
* Wind from: VRB° Speed 01 kn.
Dewpoint: 25° c.
Visibility: 10 km or more.
Clouds: Scattered 2200 ft.
Clouds: Broken 15000 ft.

WMKN 140900Z VRB01KT 9999 SCT022 BKN150 28/25 Q1008


Wind From VRB°
Speed 01 kn.

 
 
jpsmedia worldairports.se 2019   terms of use